Weather at Valesdir Airport

Public forecast

Using degrees Celsius for public forecast. Weather courtesy of forecast.io.

Closest aviation weather report (METAR) to Valesdir Airport

Report is more than 6 hours old.

Closest report is Lamap Airport, 28.4 nm (52.5 km) NW. Retrieved 2022/09/17 06:00 UTC (17 days ago):

NVSL 170600Z AUTO 08008KT //// NCD 25/24 Q1013

Closest aviation forecast (TAF) to Valesdir Airport

Forecast is more than 12 hours old.

Closest forecast is Lamap Airport, 28.4 nm (52.5 km) NW. Retrieved 2022/09/17 18:55 UTC (16 days ago):

TAF NVSL 171700Z 1718/1818 13010KT 9999 FEW012 BKN020 OVC040 INTER 1718/1724 9000 SHRA FEW010 BKN018 OVC038